sensor_id;sensor_type;location;lat;lon;timestamp;P1;durP1;ratioP1;P2;durP2;ratioP2
43419;SDS011;29017;51.514;-0.178;2022-07-18T00:02:13;8.57;;;2.65;;
43419;SDS011;29017;51.514;-0.178;2022-07-18T00:04:40;3.95;;;1.92;;
43419;SDS011;29017;51.514;-0.178;2022-07-18T00:07:07;7.70;;;2.08;;
43419;SDS011;29017;51.514;-0.178;2022-07-18T00:09:37;6.22;;;2.78;;
43419;SDS011;29017;51.514;-0.178;2022-07-18T00:12:08;7.35;;;2.40;;
43419;SDS011;29017;51.514;-0.178;2022-07-18T00:14:38;5.95;;;2.35;;
43419;SDS011;29017;51.514;-0.178;2022-07-18T00:17:06;6.65;;;2.25;;
43419;SDS011;29017;51.514;-0.178;2022-07-18T00:19:34;4.85;;;1.95;;
43419;SDS011;29017;51.514;-0.178;2022-07-18T00:22:02;5.30;;;1.98;;
43419;SDS011;29017;51.514;-0.178;2022-07-18T00:24:32;4.90;;;2.38;;
43419;SDS011;29017;51.514;-0.178;2022-07-18T00:26:59;4.80;;;1.95;;
43419;SDS011;29017;51.514;-0.178;2022-07-18T00:29:27;6.47;;;2.08;;
43419;SDS011;29017;51.514;-0.178;2022-07-18T00:31:54;5.10;;;2.10;;
43419;SDS011;29017;51.514;-0.178;2022-07-18T00:34:21;4.40;;;1.92;;
43419;SDS011;29017;51.514;-0.178;2022-07-18T00:36:48;6.25;;;2.17;;
43419;SDS011;29017;51.514;-0.178;2022-07-18T00:39:15;7.80;;;2.42;;
43419;SDS011;29017;51.514;-0.178;2022-07-18T00:41:46;4.97;;;1.90;;
43419;SDS011;29017;51.514;-0.178;2022-07-18T00:44:16;4.25;;;1.88;;
43419;SDS011;29017;51.514;-0.178;2022-07-18T00:46:46;6.53;;;2.00;;
43419;SDS011;29017;51.514;-0.178;2022-07-18T00:49:16;4.82;;;2.15;;
43419;SDS011;29017;51.514;-0.178;2022-07-18T00:51:43;13.88;;;1.98;;
43419;SDS011;29017;51.514;-0.178;2022-07-18T00:54:12;4.55;;;1.77;;
43419;SDS011;29017;51.514;-0.178;2022-07-18T00:56:39;5.97;;;2.40;;
43419;SDS011;29017;51.514;-0.178;2022-07-18T00:59:06;5.00;;;1.95;;
43419;SDS011;29017;51.514;-0.178;2022-07-18T01:01:33;5.28;;;2.17;;
43419;SDS011;29017;51.514;-0.178;2022-07-18T01:04:10;7.00;;;2.70;;
43419;SDS011;29017;51.514;-0.178;2022-07-18T01:06:42;4.22;;;1.77;;
43419;SDS011;29017;51.514;-0.178;2022-07-18T01:09:09;5.45;;;2.20;;
43419;SDS011;29017;51.514;-0.178;2022-07-18T01:11:36;8.55;;;2.47;;
43419;SDS011;29017;51.514;-0.178;2022-07-18T01:14:04;6.18;;;2.20;;
43419;SDS011;29017;51.514;-0.178;2022-07-18T01:16:32;3.75;;;1.60;;
43419;SDS011;29017;51.514;-0.178;2022-07-18T01:19:00;11.77;;;3.17;;
43419;SDS011;29017;51.514;-0.178;2022-07-18T01:21:28;4.72;;;1.92;;
43419;SDS011;29017;51.514;-0.178;2022-07-18T01:23:55;8.48;;;2.15;;
43419;SDS011;29017;51.514;-0.178;2022-07-18T01:26:22;6.45;;;2.17;;
43419;SDS011;29017;51.514;-0.178;2022-07-18T01:28:49;8.73;;;2.40;;
43419;SDS011;29017;51.514;-0.178;2022-07-18T01:31:16;6.07;;;2.15;;
43419;SDS011;29017;51.514;-0.178;2022-07-18T01:33:43;7.60;;;2.22;;
43419;SDS011;29017;51.514;-0.178;2022-07-18T01:36:10;5.32;;;2.17;;
43419;SDS011;29017;51.514;-0.178;2022-07-18T01:38:37;4.10;;;2.15;;
43419;SDS011;29017;51.514;-0.178;2022-07-18T01:41:05;5.68;;;2.17;;
43419;SDS011;29017;51.514;-0.178;2022-07-18T01:43:32;4.70;;;1.70;;
43419;SDS011;29017;51.514;-0.178;2022-07-18T01:45:59;7.03;;;2.38;;
43419;SDS011;29017;51.514;-0.178;2022-07-18T01:48:26;5.55;;;2.25;;
43419;SDS011;29017;51.514;-0.178;2022-07-18T01:50:53;6.80;;;2.30;;
43419;SDS011;29017;51.514;-0.178;2022-07-18T01:53:19;5.40;;;2.00;;
43419;SDS011;29017;51.514;-0.178;2022-07-18T01:55:47;6.30;;;2.30;;
43419;SDS011;29017;51.514;-0.178;2022-07-18T01:58:14;5.97;;;2.33;;
43419;SDS011;29017;51.514;-0.178;2022-07-18T02:00:41;8.32;;;2.40;;
43419;SDS011;29017;51.514;-0.178;2022-07-18T02:03:08;5.70;;;2.17;;
43419;SDS011;29017;51.514;-0.178;2022-07-18T02:05:35;8.15;;;1.95;;
43419;SDS011;29017;51.514;-0.178;2022-07-18T02:08:02;6.25;;;2.72;;
43419;SDS011;29017;51.514;-0.178;2022-07-18T02:10:29;5.18;;;2.30;;
43419;SDS011;29017;51.514;-0.178;2022-07-18T02:12:56;7.43;;;2.28;;
43419;SDS011;29017;51.514;-0.178;2022-07-18T02:15:23;6.20;;;2.22;;
43419;SDS011;29017;51.514;-0.178;2022-07-18T02:17:50;6.57;;;2.40;;
43419;SDS011;29017;51.514;-0.178;2022-07-18T02:20:17;5.07;;;2.63;;
43419;SDS011;29017;51.514;-0.178;2022-07-18T02:22:44;7.43;;;2.92;;
43419;SDS011;29017;51.514;-0.178;2022-07-18T02:25:11;9.13;;;3.22;;
43419;SDS011;29017;51.514;-0.178;2022-07-18T02:27:39;8.65;;;3.63;;
43419;SDS011;29017;51.514;-0.178;2022-07-18T02:30:07;7.78;;;3.67;;
43419;SDS011;29017;51.514;-0.178;2022-07-18T02:32:35;10.52;;;3.60;;
43419;SDS011;29017;51.514;-0.178;2022-07-18T02:35:07;14.05;;;4.15;;
43419;SDS011;29017;51.514;-0.178;2022-07-18T02:37:35;10.02;;;3.67;;
43419;SDS011;29017;51.514;-0.178;2022-07-18T02:40:06;9.10;;;3.30;;
43419;SDS011;29017;51.514;-0.178;2022-07-18T02:42:34;9.75;;;3.60;;
43419;SDS011;29017;51.514;-0.178;2022-07-18T02:45:01;8.23;;;3.38;;
43419;SDS011;29017;51.514;-0.178;2022-07-18T02:47:28;8.13;;;3.70;;
43419;SDS011;29017;51.514;-0.178;2022-07-18T02:49:55;8.23;;;3.42;;
43419;SDS011;29017;51.514;-0.178;2022-07-18T02:52:22;8.82;;;3.42;;
43419;SDS011;29017;51.514;-0.178;2022-07-18T02:54:49;9.82;;;3.70;;
43419;SDS011;29017;51.514;-0.178;2022-07-18T02:57:16;7.93;;;3.40;;
43419;SDS011;29017;51.514;-0.178;2022-07-18T02:59:43;8.93;;;3.90;;
43419;SDS011;29017;51.514;-0.178;2022-07-18T03:02:10;9.07;;;3.28;;
43419;SDS011;29017;51.514;-0.178;2022-07-18T03:04:37;6.05;;;3.33;;
43419;SDS011;29017;51.514;-0.178;2022-07-18T03:07:04;6.65;;;3.25;;
43419;SDS011;29017;51.514;-0.178;2022-07-18T03:09:32;7.93;;;3.50;;
43419;SDS011;29017;51.514;-0.178;2022-07-18T03:12:00;9.82;;;3.80;;
43419;SDS011;29017;51.514;-0.178;2022-07-18T03:14:28;6.45;;;3.10;;
43419;SDS011;29017;51.514;-0.178;2022-07-18T03:16:55;6.55;;;2.72;;
43419;SDS011;29017;51.514;-0.178;2022-07-18T03:19:23;6.30;;;3.25;;
43419;SDS011;29017;51.514;-0.178;2022-07-18T03:21:50;7.90;;;2.92;;
43419;SDS011;29017;51.514;-0.178;2022-07-18T03:24:17;6.88;;;3.38;;
43419;SDS011;29017;51.514;-0.178;2022-07-18T03:26:45;6.30;;;2.90;;
43419;SDS011;29017;51.514;-0.178;2022-07-18T03:29:12;8.98;;;3.80;;
43419;SDS011;29017;51.514;-0.178;2022-07-18T03:31:40;5.57;;;3.03;;
43419;SDS011;29017;51.514;-0.178;2022-07-18T03:34:07;10.57;;;3.80;;
43419;SDS011;29017;51.514;-0.178;2022-07-18T03:36:35;8.43;;;3.60;;
43419;SDS011;29017;51.514;-0.178;2022-07-18T03:39:04;5.88;;;2.72;;
43419;SDS011;29017;51.514;-0.178;2022-07-18T03:41:33;8.15;;;3.42;;
43419;SDS011;29017;51.514;-0.178;2022-07-18T03:44:00;7.53;;;3.38;;
43419;SDS011;29017;51.514;-0.178;2022-07-18T03:46:28;8.32;;;3.50;;
43419;SDS011;29017;51.514;-0.178;2022-07-18T03:48:55;9.93;;;3.80;;
43419;SDS011;29017;51.514;-0.178;2022-07-18T03:51:22;5.22;;;2.95;;
43419;SDS011;29017;51.514;-0.178;2022-07-18T03:53:49;7.82;;;3.55;;
43419;SDS011;29017;51.514;-0.178;2022-07-18T03:56:17;8.10;;;2.72;;
43419;SDS011;29017;51.514;-0.178;2022-07-18T03:58:44;10.27;;;3.33;;
43419;SDS011;29017;51.514;-0.178;2022-07-18T04:01:11;5.97;;;2.80;;
43419;SDS011;29017;51.514;-0.178;2022-07-18T04:03:38;5.80;;;2.60;;
43419;SDS011;29017;51.514;-0.178;2022-07-18T04:06:05;8.70;;;3.15;;
43419;SDS011;29017;51.514;-0.178;2022-07-18T04:08:32;8.27;;;3.20;;
43419;SDS011;29017;51.514;-0.178;2022-07-18T04:10:59;5.45;;;2.75;;
43419;SDS011;29017;51.514;-0.178;2022-07-18T04:13:30;9.60;;;2.97;;
43419;SDS011;29017;51.514;-0.178;2022-07-18T04:16:03;8.35;;;2.40;;
43419;SDS011;29017;51.514;-0.178;2022-07-18T04:18:30;6.82;;;2.40;;
43419;SDS011;29017;51.514;-0.178;2022-07-18T04:21:04;5.68;;;2.45;;
43419;SDS011;29017;51.514;-0.178;2022-07-18T04:23:36;5.72;;;2.63;;
43419;SDS011;29017;51.514;-0.178;2022-07-18T04:26:06;5.03;;;2.13;;
43419;SDS011;29017;51.514;-0.178;2022-07-18T04:28:33;5.93;;;2.38;;
43419;SDS011;29017;51.514;-0.178;2022-07-18T04:31:01;9.05;;;2.50;;
43419;SDS011;29017;51.514;-0.178;2022-07-18T04:33:33;7.18;;;2.63;;
43419;SDS011;29017;51.514;-0.178;2022-07-18T04:36:00;6.87;;;2.30;;
43419;SDS011;29017;51.514;-0.178;2022-07-18T04:38:26;6.72;;;2.20;;
43419;SDS011;29017;51.514;-0.178;2022-07-18T04:40:55;6.75;;;2.42;;
43419;SDS011;29017;51.514;-0.178;2022-07-18T04:43:22;4.07;;;1.80;;
43419;SDS011;29017;51.514;-0.178;2022-07-18T04:45:48;6.43;;;2.03;;
43419;SDS011;29017;51.514;-0.178;2022-07-18T04:48:15;6.05;;;2.05;;
43419;SDS011;29017;51.514;-0.178;2022-07-18T04:50:42;6.78;;;1.77;;
43419;SDS011;29017;51.514;-0.178;2022-07-18T04:53:09;5.50;;;1.70;;
43419;SDS011;29017;51.514;-0.178;2022-07-18T04:55:37;5.15;;;1.77;;
43419;SDS011;29017;51.514;-0.178;2022-07-18T04:58:03;4.53;;;1.92;;
43419;SDS011;29017;51.514;-0.178;2022-07-18T05:00:31;4.40;;;1.58;;
43419;SDS011;29017;51.514;-0.178;2022-07-18T05:02:58;4.00;;;1.90;;
43419;SDS011;29017;51.514;-0.178;2022-07-18T05:05:25;9.07;;;1.70;;
43419;SDS011;29017;51.514;-0.178;2022-07-18T05:08:01;7.20;;;1.65;;
43419;SDS011;29017;51.514;-0.178;2022-07-18T05:10:28;5.55;;;1.63;;
43419;SDS011;29017;51.514;-0.178;2022-07-18T05:12:55;7.55;;;1.95;;
43419;SDS011;29017;51.514;-0.178;2022-07-18T05:15:23;4.80;;;1.65;;
43419;SDS011;29017;51.514;-0.178;2022-07-18T05:17:51;7.00;;;2.03;;
43419;SDS011;29017;51.514;-0.178;2022-07-18T05:20:19;5.38;;;1.40;;
43419;SDS011;29017;51.514;-0.178;2022-07-18T05:22:48;5.13;;;1.50;;
43419;SDS011;29017;51.514;-0.178;2022-07-18T05:25:15;8.50;;;1.85;;
43419;SDS011;29017;51.514;-0.178;2022-07-18T05:27:42;5.47;;;1.30;;
43419;SDS011;29017;51.514;-0.178;2022-07-18T05:30:11;5.68;;;1.70;;
43419;SDS011;29017;51.514;-0.178;2022-07-18T05:32:39;10.27;;;1.80;;
43419;SDS011;29017;51.514;-0.178;2022-07-18T05:35:07;6.20;;;1.70;;
43419;SDS011;29017;51.514;-0.178;2022-07-18T05:37:35;5.22;;;1.33;;
43419;SDS011;29017;51.514;-0.178;2022-07-18T05:40:04;3.65;;;1.48;;
43419;SDS011;29017;51.514;-0.178;2022-07-18T05:42:32;3.42;;;1.40;;
43419;SDS011;29017;51.514;-0.178;2022-07-18T05:45:18;4.95;;;1.55;;
43419;SDS011;29017;51.514;-0.178;2022-07-18T05:47:45;5.15;;;1.60;;
43419;SDS011;29017;51.514;-0.178;2022-07-18T05:50:12;5.70;;;1.50;;
43419;SDS011;29017;51.514;-0.178;2022-07-18T05:52:39;7.03;;;2.28;;
43419;SDS011;29017;51.514;-0.178;2022-07-18T05:55:06;3.85;;;1.30;;
43419;SDS011;29017;51.514;-0.178;2022-07-18T05:57:34;7.50;;;1.23;;
43419;SDS011;29017;51.514;-0.178;2022-07-18T06:00:05;5.20;;;1.60;;
43419;SDS011;29017;51.514;-0.178;2022-07-18T06:02:34;5.13;;;1.40;;
43419;SDS011;29017;51.514;-0.178;2022-07-18T06:05:02;3.15;;;1.15;;
43419;SDS011;29017;51.514;-0.178;2022-07-18T06:07:50;4.30;;;1.00;;
43419;SDS011;29017;51.514;-0.178;2022-07-18T06:10:17;5.88;;;1.50;;
43419;SDS011;29017;51.514;-0.178;2022-07-18T06:12:44;3.80;;;0.90;;
43419;SDS011;29017;51.514;-0.178;2022-07-18T06:15:11;7.43;;;1.30;;
43419;SDS011;29017;51.514;-0.178;2022-07-18T06:17:39;5.15;;;1.13;;
43419;SDS011;29017;51.514;-0.178;2022-07-18T06:20:06;4.22;;;1.10;;
43419;SDS011;29017;51.514;-0.178;2022-07-18T06:22:34;4.32;;;1.23;;
43419;SDS011;29017;51.514;-0.178;2022-07-18T06:25:02;4.85;;;1.02;;
43419;SDS011;29017;51.514;-0.178;2022-07-18T06:27:30;5.15;;;1.40;;
43419;SDS011;29017;51.514;-0.178;2022-07-18T06:29:57;4.80;;;1.38;;
43419;SDS011;29017;51.514;-0.178;2022-07-18T06:32:25;5.40;;;1.30;;
43419;SDS011;29017;51.514;-0.178;2022-07-18T06:34:52;6.03;;;1.50;;
43419;SDS011;29017;51.514;-0.178;2022-07-18T06:37:19;7.15;;;1.63;;
43419;SDS011;29017;51.514;-0.178;2022-07-18T06:39:46;4.65;;;1.50;;
43419;SDS011;29017;51.514;-0.178;2022-07-18T06:42:13;5.25;;;1.52;;
43419;SDS011;29017;51.514;-0.178;2022-07-18T06:44:40;4.10;;;1.58;;
43419;SDS011;29017;51.514;-0.178;2022-07-18T06:47:07;4.88;;;1.40;;
43419;SDS011;29017;51.514;-0.178;2022-07-18T06:49:34;25.15;;;12.98;;
43419;SDS011;29017;51.514;-0.178;2022-07-18T06:52:01;27.75;;;13.43;;
43419;SDS011;29017;51.514;-0.178;2022-07-18T06:54:30;19.73;;;8.82;;
43419;SDS011;29017;51.514;-0.178;2022-07-18T06:56:59;6.43;;;3.22;;
43419;SDS011;29017;51.514;-0.178;2022-07-18T06:59:26;11.10;;;4.68;;
43419;SDS011;29017;51.514;-0.178;2022-07-18T07:01:53;4.28;;;2.17;;
43419;SDS011;29017;51.514;-0.178;2022-07-18T07:04:20;3.17;;;1.25;;
43419;SDS011;29017;51.514;-0.178;2022-07-18T07:06:47;4.47;;;1.52;;
43419;SDS011;29017;51.514;-0.178;2022-07-18T07:09:14;3.58;;;1.10;;
43419;SDS011;29017;51.514;-0.178;2022-07-18T07:11:41;3.03;;;1.25;;
43419;SDS011;29017;51.514;-0.178;2022-07-18T07:14:08;2.95;;;1.35;;
43419;SDS011;29017;51.514;-0.178;2022-07-18T07:16:35;3.58;;;1.40;;
43419;SDS011;29017;51.514;-0.178;2022-07-18T07:19:02;4.68;;;1.02;;
43419;SDS011;29017;51.514;-0.178;2022-07-18T07:21:29;3.08;;;0.88;;
43419;SDS011;29017;51.514;-0.178;2022-07-18T07:23:56;6.10;;;1.23;;
43419;SDS011;29017;51.514;-0.178;2022-07-18T07:26:23;4.60;;;0.95;;
43419;SDS011;29017;51.514;-0.178;2022-07-18T07:28:50;2.92;;;0.85;;
43419;SDS011;29017;51.514;-0.178;2022-07-18T07:31:17;5.32;;;1.02;;
43419;SDS011;29017;51.514;-0.178;2022-07-18T07:33:44;3.88;;;1.15;;
43419;SDS011;29017;51.514;-0.178;2022-07-18T07:36:11;3.47;;;0.95;;
43419;SDS011;29017;51.514;-0.178;2022-07-18T07:38:38;6.43;;;1.30;;
43419;SDS011;29017;51.514;-0.178;2022-07-18T07:41:05;4.90;;;0.98;;
43419;SDS011;29017;51.514;-0.178;2022-07-18T07:43:40;4.50;;;1.00;;
43419;SDS011;29017;51.514;-0.178;2022-07-18T07:46:07;2.90;;;0.85;;
43419;SDS011;29017;51.514;-0.178;2022-07-18T07:48:34;3.38;;;1.00;;
43419;SDS011;29017;51.514;-0.178;2022-07-18T07:51:01;3.50;;;1.02;;
43419;SDS011;29017;51.514;-0.178;2022-07-18T07:53:37;3.20;;;1.13;;
43419;SDS011;29017;51.514;-0.178;2022-07-18T07:56:06;1.75;;;0.80;;
43419;SDS011;29017;51.514;-0.178;2022-07-18T07:58:33;4.38;;;1.10;;
43419;SDS011;29017;51.514;-0.178;2022-07-18T08:01:00;3.60;;;1.23;;
43419;SDS011;29017;51.514;-0.178;2022-07-18T08:03:32;5.57;;;1.00;;
43419;SDS011;29017;51.514;-0.178;2022-07-18T08:05:59;6.47;;;0.90;;
43419;SDS011;29017;51.514;-0.178;2022-07-18T08:08:26;3.63;;;1.20;;
43419;SDS011;29017;51.514;-0.178;2022-07-18T08:10:53;4.35;;;0.93;;
43419;SDS011;29017;51.514;-0.178;2022-07-18T08:13:20;5.82;;;1.73;;
43419;SDS011;29017;51.514;-0.178;2022-07-18T08:15:47;6.93;;;1.00;;
43419;SDS011;29017;51.514;-0.178;2022-07-18T08:18:14;7.28;;;1.23;;
43419;SDS011;29017;51.514;-0.178;2022-07-18T08:20:41;3.40;;;0.88;;
43419;SDS011;29017;51.514;-0.178;2022-07-18T08:23:09;7.72;;;1.17;;
43419;SDS011;29017;51.514;-0.178;2022-07-18T08:25:38;2.95;;;0.80;;
43419;SDS011;29017;51.514;-0.178;2022-07-18T08:28:07;7.53;;;0.82;;
43419;SDS011;29017;51.514;-0.178;2022-07-18T08:30:34;4.50;;;0.80;;
43419;SDS011;29017;51.514;-0.178;2022-07-18T08:33:02;12.10;;;1.00;;
43419;SDS011;29017;51.514;-0.178;2022-07-18T08:35:29;3.38;;;1.00;;
43419;SDS011;29017;51.514;-0.178;2022-07-18T08:37:58;6.35;;;1.00;;
43419;SDS011;29017;51.514;-0.178;2022-07-18T08:40:26;3.22;;;1.10;;
43419;SDS011;29017;51.514;-0.178;2022-07-18T08:42:54;6.25;;;1.13;;
43419;SDS011;29017;51.514;-0.178;2022-07-18T08:45:42;2.53;;;0.80;;
43419;SDS011;29017;51.514;-0.178;2022-07-18T08:48:12;4.28;;;1.02;;
43419;SDS011;29017;51.514;-0.178;2022-07-18T08:50:46;7.70;;;1.00;;
43419;SDS011;29017;51.514;-0.178;2022-07-18T08:53:15;4.07;;;0.98;;
43419;SDS011;29017;51.514;-0.178;2022-07-18T08:55:44;5.85;;;1.33;;
43419;SDS011;29017;51.514;-0.178;2022-07-18T08:58:12;5.57;;;0.73;;
43419;SDS011;29017;51.514;-0.178;2022-07-18T09:01:01;1.90;;;0.77;;
43419;SDS011;29017;51.514;-0.178;2022-07-18T09:03:30;5.97;;;0.90;;
43419;SDS011;29017;51.514;-0.178;2022-07-18T09:06:09;4.30;;;0.90;;
43419;SDS011;29017;51.514;-0.178;2022-07-18T09:08:38;1.95;;;0.68;;
43419;SDS011;29017;51.514;-0.178;2022-07-18T09:11:10;5.13;;;1.10;;
43419;SDS011;29017;51.514;-0.178;2022-07-18T09:13:58;14.70;;;1.08;;
43419;SDS011;29017;51.514;-0.178;2022-07-18T09:16:25;5.78;;;0.98;;
43419;SDS011;29017;51.514;-0.178;2022-07-18T09:18:53;4.00;;;0.70;;
43419;SDS011;29017;51.514;-0.178;2022-07-18T09:21:21;2.47;;;0.93;;
43419;SDS011;29017;51.514;-0.178;2022-07-18T09:23:49;6.53;;;0.75;;
43419;SDS011;29017;51.514;-0.178;2022-07-18T09:26:38;15.18;;;1.08;;
43419;SDS011;29017;51.514;-0.178;2022-07-18T09:29:07;2.20;;;0.70;;
43419;SDS011;29017;51.514;-0.178;2022-07-18T09:31:53;4.90;;;0.70;;
43419;SDS011;29017;51.514;-0.178;2022-07-18T09:34:34;1.65;;;0.60;;
43419;SDS011;29017;51.514;-0.178;2022-07-18T09:37:03;2.13;;;0.70;;
43419;SDS011;29017;51.514;-0.178;2022-07-18T09:39:31;2.90;;;0.80;;
43419;SDS011;29017;51.514;-0.178;2022-07-18T09:44:58;2.22;;;0.80;;
43419;SDS011;29017;51.514;-0.178;2022-07-18T09:47:26;5.13;;;0.90;;
43419;SDS011;29017;51.514;-0.178;2022-07-18T09:49:53;4.30;;;0.60;;
43419;SDS011;29017;51.514;-0.178;2022-07-18T09:52:21;2.47;;;0.70;;
43419;SDS011;29017;51.514;-0.178;2022-07-18T09:54:49;2.63;;;0.50;;
43419;SDS011;29017;51.514;-0.178;2022-07-18T09:57:23;1.85;;;0.77;;
43419;SDS011;29017;51.514;-0.178;2022-07-18T09:59:51;2.95;;;1.02;;
43419;SDS011;29017;51.514;-0.178;2022-07-18T10:02:18;3.58;;;1.08;;
43419;SDS011;29017;51.514;-0.178;2022-07-18T10:04:46;1.98;;;0.68;;
43419;SDS011;29017;51.514;-0.178;2022-07-18T10:07:14;1.50;;;0.60;;
43419;SDS011;29017;51.514;-0.178;2022-07-18T10:09:41;3.65;;;0.70;;
43419;SDS011;29017;51.514;-0.178;2022-07-18T10:12:11;3.55;;;0.55;;
43419;SDS011;29017;51.514;-0.178;2022-07-18T10:14:40;2.47;;;0.50;;
43419;SDS011;29017;51.514;-0.178;2022-07-18T10:17:08;3.40;;;0.63;;
43419;SDS011;29017;51.514;-0.178;2022-07-18T10:19:36;4.20;;;0.60;;
43419;SDS011;29017;51.514;-0.178;2022-07-18T10:22:03;1.60;;;0.60;;
43419;SDS011;29017;51.514;-0.178;2022-07-18T10:24:33;3.25;;;0.60;;
43419;SDS011;29017;51.514;-0.178;2022-07-18T10:27:12;5.80;;;0.60;;
43419;SDS011;29017;51.514;-0.178;2022-07-18T10:32:36;1.48;;;0.73;;
43419;SDS011;29017;51.514;-0.178;2022-07-18T10:35:03;1.60;;;0.57;;
43419;SDS011;29017;51.514;-0.178;2022-07-18T10:37:33;1.98;;;0.70;;
43419;SDS011;29017;51.514;-0.178;2022-07-18T10:40:34;2.78;;;0.80;;
43419;SDS011;29017;51.514;-0.178;2022-07-18T10:46:03;3.05;;;0.60;;
43419;SDS011;29017;51.514;-0.178;2022-07-18T10:53:55;1.73;;;0.60;;
43419;SDS011;29017;51.514;-0.178;2022-07-18T10:58:54;2.70;;;0.80;;
43419;SDS011;29017;51.514;-0.178;2022-07-18T11:01:22;4.60;;;0.60;;
43419;SDS011;29017;51.514;-0.178;2022-07-18T11:09:31;2.58;;;0.60;;
43419;SDS011;29017;51.514;-0.178;2022-07-18T11:12:18;2.42;;;0.70;;
43419;SDS011;29017;51.514;-0.178;2022-07-18T11:14:58;2.17;;;0.70;;
43419;SDS011;29017;51.514;-0.178;2022-07-18T11:18:17;1.70;;;0.70;;
43419;SDS011;29017;51.514;-0.178;2022-07-18T11:20:29;2.08;;;0.77;;
43419;SDS011;29017;51.514;-0.178;2022-07-18T11:23:12;4.75;;;0.60;;
43419;SDS011;29017;51.514;-0.178;2022-07-18T11:25:41;2.08;;;0.60;;
43419;SDS011;29017;51.514;-0.178;2022-07-18T11:28:25;3.45;;;0.60;;
43419;SDS011;29017;51.514;-0.178;2022-07-18T11:31:04;2.08;;;0.60;;
43419;SDS011;29017;51.514;-0.178;2022-07-18T11:33:44;5.78;;;0.60;;
43419;SDS011;29017;51.514;-0.178;2022-07-18T11:36:14;4.10;;;0.50;;
43419;SDS011;29017;51.514;-0.178;2022-07-18T11:38:50;2.22;;;0.60;;
43419;SDS011;29017;51.514;-0.178;2022-07-18T11:41:24;2.38;;;0.60;;
43419;SDS011;29017;51.514;-0.178;2022-07-18T11:43:52;2.42;;;0.70;;
43419;SDS011;29017;51.514;-0.178;2022-07-18T11:46:25;3.58;;;0.50;;
43419;SDS011;29017;51.514;-0.178;2022-07-18T11:48:57;1.70;;;0.52;;
43419;SDS011;29017;51.514;-0.178;2022-07-18T11:51:35;3.53;;;0.60;;
43419;SDS011;29017;51.514;-0.178;2022-07-18T11:54:07;1.33;;;0.50;;
43419;SDS011;29017;51.514;-0.178;2022-07-18T11:56:44;1.15;;;0.50;;
43419;SDS011;29017;51.514;-0.178;2022-07-18T11:59:14;0.77;;;0.40;;
43419;SDS011;29017;51.514;-0.178;2022-07-18T12:01:42;2.03;;;1.58;;
43419;SDS011;29017;51.514;-0.178;2022-07-18T12:04:15;3.53;;;0.60;;
43419;SDS011;29017;51.514;-0.178;2022-07-18T12:06:45;1.73;;;0.60;;
43419;SDS011;29017;51.514;-0.178;2022-07-18T12:09:12;1.45;;;0.50;;
43419;SDS011;29017;51.514;-0.178;2022-07-18T12:11:53;1.55;;;0.40;;
43419;SDS011;29017;51.514;-0.178;2022-07-18T12:14:40;2.38;;;0.50;;
43419;SDS011;29017;51.514;-0.178;2022-07-18T12:17:07;1.92;;;0.47;;
43419;SDS011;29017;51.514;-0.178;2022-07-18T12:19:37;3.30;;;0.50;;
43419;SDS011;29017;51.514;-0.178;2022-07-18T12:22:07;0.93;;;0.50;;
43419;SDS011;29017;51.514;-0.178;2022-07-18T12:27:21;2.05;;;0.40;;
43419;SDS011;29017;51.514;-0.178;2022-07-18T12:29:53;1.65;;;0.50;;
43419;SDS011;29017;51.514;-0.178;2022-07-18T12:32:51;2.72;;;0.40;;
43419;SDS011;29017;51.514;-0.178;2022-07-18T12:37:56;1.75;;;0.40;;
43419;SDS011;29017;51.514;-0.178;2022-07-18T12:40:47;1.10;;;0.40;;
43419;SDS011;29017;51.514;-0.178;2022-07-18T12:43:16;3.30;;;0.52;;
43419;SDS011;29017;51.514;-0.178;2022-07-18T12:45:48;1.45;;;0.50;;
43419;SDS011;29017;51.514;-0.178;2022-07-18T12:48:15;3.30;;;0.70;;
43419;SDS011;29017;51.514;-0.178;2022-07-18T12:50:43;1.58;;;0.50;;
43419;SDS011;29017;51.514;-0.178;2022-07-18T12:53:11;2.08;;;0.43;;
43419;SDS011;29017;51.514;-0.178;2022-07-18T12:55:39;1.77;;;0.60;;
43419;SDS011;29017;51.514;-0.178;2022-07-18T12:58:07;3.38;;;0.73;;
43419;SDS011;29017;51.514;-0.178;2022-07-18T13:00:35;3.28;;;0.60;;
43419;SDS011;29017;51.514;-0.178;2022-07-18T13:03:02;0.82;;;0.40;;
43419;SDS011;29017;51.514;-0.178;2022-07-18T13:05:30;1.98;;;0.40;;
43419;SDS011;29017;51.514;-0.178;2022-07-18T13:07:57;3.00;;;0.50;;
43419;SDS011;29017;51.514;-0.178;2022-07-18T13:10:24;9.48;;;0.57;;
43419;SDS011;29017;51.514;-0.178;2022-07-18T13:12:51;1.20;;;0.30;;
43419;SDS011;29017;51.514;-0.178;2022-07-18T13:15:19;5.32;;;0.57;;
43419;SDS011;29017;51.514;-0.178;2022-07-18T13:17:47;1.83;;;0.40;;
43419;SDS011;29017;51.514;-0.178;2022-07-18T13:20:15;1.02;;;0.40;;
43419;SDS011;29017;51.514;-0.178;2022-07-18T13:22:43;5.28;;;0.40;;
43419;SDS011;29017;51.514;-0.178;2022-07-18T13:25:18;3.03;;;0.50;;
43419;SDS011;29017;51.514;-0.178;2022-07-18T13:27:46;1.02;;;0.40;;
43419;SDS011;29017;51.514;-0.178;2022-07-18T13:30:13;0.90;;;0.30;;
43419;SDS011;29017;51.514;-0.178;2022-07-18T13:32:40;2.40;;;0.50;;
43419;SDS011;29017;51.514;-0.178;2022-07-18T13:35:11;3.45;;;0.40;;
43419;SDS011;29017;51.514;-0.178;2022-07-18T13:37:38;2.50;;;0.70;;
43419;SDS011;29017;51.514;-0.178;2022-07-18T13:40:05;2.75;;;0.57;;
43419;SDS011;29017;51.514;-0.178;2022-07-18T13:42:34;2.03;;;0.43;;
43419;SDS011;29017;51.514;-0.178;2022-07-18T13:45:02;1.27;;;0.30;;
43419;SDS011;29017;51.514;-0.178;2022-07-18T13:47:30;3.78;;;0.40;;
43419;SDS011;29017;51.514;-0.178;2022-07-18T13:49:56;1.90;;;0.43;;
43419;SDS011;29017;51.514;-0.178;2022-07-18T13:52:23;2.10;;;0.40;;
43419;SDS011;29017;51.514;-0.178;2022-07-18T13:54:50;1.95;;;0.43;;
43419;SDS011;29017;51.514;-0.178;2022-07-18T13:57:21;1.10;;;0.40;;
43419;SDS011;29017;51.514;-0.178;2022-07-18T13:59:48;1.45;;;0.50;;
43419;SDS011;29017;51.514;-0.178;2022-07-18T14:02:15;2.22;;;0.60;;
43419;SDS011;29017;51.514;-0.178;2022-07-18T14:04:42;2.63;;;0.40;;
43419;SDS011;29017;51.514;-0.178;2022-07-18T14:07:29;1.08;;;0.40;;
43419;SDS011;29017;51.514;-0.178;2022-07-18T14:09:56;3.25;;;0.40;;
43419;SDS011;29017;51.514;-0.178;2022-07-18T14:12:23;2.03;;;0.40;;
43419;SDS011;29017;51.514;-0.178;2022-07-18T14:14:50;2.85;;;0.40;;
43419;SDS011;29017;51.514;-0.178;2022-07-18T14:17:17;3.00;;;0.50;;
43419;SDS011;29017;51.514;-0.178;2022-07-18T14:19:43;1.98;;;0.40;;
43419;SDS011;29017;51.514;-0.178;2022-07-18T14:22:10;0.60;;;0.40;;
43419;SDS011;29017;51.514;-0.178;2022-07-18T14:24:38;4.07;;;0.50;;
43419;SDS011;29017;51.514;-0.178;2022-07-18T14:27:05;2.75;;;0.40;;
43419;SDS011;29017;51.514;-0.178;2022-07-18T14:29:32;1.83;;;0.40;;
43419;SDS011;29017;51.514;-0.178;2022-07-18T14:31:59;2.92;;;0.40;;
43419;SDS011;29017;51.514;-0.178;2022-07-18T14:34:27;2.03;;;0.40;;
43419;SDS011;29017;51.514;-0.178;2022-07-18T14:36:54;3.03;;;0.30;;
43419;SDS011;29017;51.514;-0.178;2022-07-18T14:39:21;1.00;;;0.40;;
43419;SDS011;29017;51.514;-0.178;2022-07-18T14:41:48;1.73;;;0.50;;
43419;SDS011;29017;51.514;-0.178;2022-07-18T14:44:15;1.13;;;0.40;;
43419;SDS011;29017;51.514;-0.178;2022-07-18T14:46:42;1.42;;;0.35;;
43419;SDS011;29017;51.514;-0.178;2022-07-18T14:49:09;1.00;;;0.30;;
43419;SDS011;29017;51.514;-0.178;2022-07-18T14:51:36;1.20;;;0.30;;
43419;SDS011;29017;51.514;-0.178;2022-07-18T14:54:03;1.42;;;0.57;;
43419;SDS011;29017;51.514;-0.178;2022-07-18T14:56:29;2.05;;;1.05;;
43419;SDS011;29017;51.514;-0.178;2022-07-18T14:58:56;3.75;;;0.40;;
43419;SDS011;29017;51.514;-0.178;2022-07-18T15:01:23;4.95;;;0.40;;
43419;SDS011;29017;51.514;-0.178;2022-07-18T15:03:50;6.88;;;0.40;;
43419;SDS011;29017;51.514;-0.178;2022-07-18T15:06:28;1.48;;;0.30;;
43419;SDS011;29017;51.514;-0.178;2022-07-18T15:08:57;1.23;;;0.30;;
43419;SDS011;29017;51.514;-0.178;2022-07-18T15:11:24;2.47;;;0.77;;
43419;SDS011;29017;51.514;-0.178;2022-07-18T15:13:51;2.85;;;0.40;;